Time;durP1;ratioP1;P1;durP2;ratioP2;P2;SDS_P1;SDS_P2;PMS_P1;PMS_P2;Temp;Humidity;BMP_temperature;BMP_pressure;BME280_temperature;BME280_humidity;BME280_pressure;Samples;Min_cycle;Max_cycle;Signal;HPM_P1;HPM_P2
2021/09/24 00:00:11;;;;;;;2.88;1.45;;;;;;;16.10;67.39;100567.84;5048856;28;20054;-41
2021/09/24 00:02:37;;;;;;;2.60;1.55;;;;;;;16.07;67.43;100556.47;5070459;28;20028;-42
2021/09/24 00:05:03;;;;;;;1.10;1.05;;;;;;;16.11;67.26;100563.41;5052748;28;20020;-41
2021/09/24 00:07:29;;;;;;;1.98;1.42;;;;;;;16.10;67.35;100566.97;5077081;28;20569;-40
2021/09/24 00:09:54;;;;;;;2.05;1.35;;;;;;;16.10;67.29;100566.97;5076332;28;20027;-41
2021/09/24 00:12:20;;;;;;;1.58;1.48;;;;;;;16.10;67.15;100561.66;5057194;28;20028;-41
2021/09/24 00:14:46;;;;;;;2.33;1.40;;;;;;;16.09;67.11;100571.44;5078677;28;20104;-42
2021/09/24 00:17:13;;;;;;;3.60;1.52;;;;;;;16.10;67.24;100564.31;5073314;28;20047;-42
2021/09/24 00:19:39;;;;;;;2.58;1.25;;;;;;;16.12;66.98;100575.78;5076612;28;20051;-41
2021/09/24 00:22:05;;;;;;;3.97;1.63;;;;;;;16.09;67.06;100565.25;5078479;28;20070;-41
2021/09/24 00:24:31;;;;;;;2.47;1.40;;;;;;;16.09;66.91;100568.78;5076570;28;20041;-41
2021/09/24 00:26:57;;;;;;;1.73;1.20;;;;;;;16.09;67.05;100571.44;5075241;28;20051;-41
2021/09/24 00:29:23;;;;;;;2.67;1.30;;;;;;;16.10;66.97;100583.81;5067582;28;20028;-39
2021/09/24 00:31:49;;;;;;;0.93;0.90;;;;;;;16.09;66.94;100574.09;5072864;28;20448;-41
2021/09/24 00:34:14;;;;;;;2.63;1.55;;;;;;;16.08;66.72;100575.03;5077920;28;20051;-42
2021/09/24 00:36:40;;;;;;;2.22;1.65;;;;;;;16.08;66.87;100574.16;5075591;28;20032;-41
2021/09/24 00:39:06;;;;;;;3.22;1.50;;;;;;;16.09;67.06;100578.53;5073355;28;20035;-41
2021/09/24 00:41:32;;;;;;;4.28;2.03;;;;;;;16.09;67.04;100578.53;5074828;28;20036;-40
2021/09/24 00:43:58;;;;;;;2.38;1.20;;;;;;;16.10;67.04;100577.63;5079245;28;20077;-41
2021/09/24 00:46:23;;;;;;;1.80;1.02;;;;;;;16.08;67.03;100574.16;5072219;28;20041;-41
2021/09/24 00:48:49;;;;;;;6.20;1.42;;;;;;;16.09;67.11;100575.88;5071920;28;20024;-41
2021/09/24 00:51:15;;;;;;;2.92;1.60;;;;;;;16.09;66.92;100578.53;5068425;28;20756;-42
2021/09/24 00:53:41;;;;;;;2.55;1.40;;;;;;;16.09;67.18;100581.19;5075249;28;20074;-41
2021/09/24 00:56:08;;;;;;;1.75;1.55;;;;;;;16.08;67.01;100584.78;5058820;28;20737;-41
2021/09/24 00:58:34;;;;;;;4.78;1.20;;;;;;;16.08;67.14;100579.47;5070311;28;20107;-40
2021/09/24 01:00:59;;;;;;;1.42;1.30;;;;;;;16.08;67.00;100584.78;5071588;28;20099;-41
2021/09/24 01:03:25;;;;;;;1.55;1.10;;;;;;;16.08;66.98;100590.13;5076251;28;20063;-41
2021/09/24 01:05:51;;;;;;;3.50;1.25;;;;;;;16.07;67.02;100593.69;5075627;28;20382;-41
2021/09/24 01:08:17;;;;;;;4.80;1.33;;;;;;;16.07;67.10;100589.22;5073644;28;20039;-41
2021/09/24 01:10:43;;;;;;;2.08;1.10;;;;;;;16.07;67.03;100593.69;5073682;28;20024;-41
2021/09/24 01:13:09;;;;;;;1.75;1.25;;;;;;;16.08;67.13;100590.13;5076850;28;20574;-41
2021/09/24 01:15:35;;;;;;;1.33;1.23;;;;;;;16.08;67.22;100598.09;5071928;28;20037;-41
2021/09/24 01:18:01;;;;;;;1.83;1.38;;;;;;;16.08;67.22;100603.41;5049454;28;20024;-41
2021/09/24 01:20:27;;;;;;;2.00;1.13;;;;;;;16.08;67.11;100616.72;5069730;28;20087;-41
2021/09/24 01:22:53;;;;;;;3.70;1.27;;;;;;;16.07;66.98;100607.84;5073229;28;20549;-41
2021/09/24 01:25:21;;;;;;;1.70;1.08;;;;;;;16.08;67.04;100616.72;5073362;28;20432;-41
2021/09/24 01:27:48;;;;;;;1.45;1.00;;;;;;;16.07;67.15;100615.00;5073272;28;20039;-40
2021/09/24 01:30:15;;;;;;;4.13;1.20;;;;;;;16.07;67.10;100615.00;5071199;28;20406;-41
2021/09/24 01:32:45;;;;;;;2.25;1.30;;;;;;;16.06;67.01;100603.47;5077979;28;21225;-41
2021/09/24 01:35:11;;;;;;;1.70;1.10;;;;;;;16.08;67.02;100611.41;5075698;28;20133;-41
2021/09/24 01:37:37;;;;;;;4.70;1.33;;;;;;;16.07;66.99;100604.34;5051670;28;20375;-40
2021/09/24 01:40:08;;;;;;;2.00;0.98;;;;;;;16.07;67.09;100609.66;5074482;28;20491;-42
2021/09/24 01:42:34;;;;;;;1.38;0.90;;;;;;;16.07;67.12;100612.31;5055614;28;20035;-42
2021/09/24 01:44:59;;;;;;;1.92;1.10;;;;;;;16.06;67.02;100619.44;5072138;28;20035;-41
2021/09/24 01:47:25;;;;;;;2.38;1.38;;;;;;;16.07;66.94;100620.31;5072665;28;20031;-41
2021/09/24 01:49:51;;;;;;;1.30;0.82;;;;;;;16.06;67.10;100619.44;5077849;28;20390;-41
2021/09/24 01:52:17;;;;;;;2.25;1.20;;;;;;;16.06;66.92;100616.75;5070848;28;20025;-41
2021/09/24 01:54:43;;;;;;;2.15;1.05;;;;;;;16.06;67.02;100611.44;5068944;28;20370;-41
2021/09/24 01:57:11;;;;;;;2.08;1.10;;;;;;;16.06;67.03;100610.56;5070703;28;20458;-41
2021/09/24 01:59:37;;;;;;;2.75;1.42;;;;;;;16.06;67.08;100621.19;5070237;28;20083;-41
2021/09/24 02:02:03;;;;;;;1.85;1.05;;;;;;;16.06;66.94;100613.22;5069769;28;20028;-41
2021/09/24 02:04:29;;;;;;;3.97;1.20;;;;;;;16.05;67.03;100608.84;5071720;28;20035;-41
2021/09/24 02:06:55;;;;;;;1.83;1.42;;;;;;;16.07;67.18;100622.97;5067667;28;20024;-41
2021/09/24 02:09:21;;;;;;;3.17;1.42;;;;;;;16.06;67.02;100621.19;5038882;28;20410;-41
2021/09/24 02:11:47;;;;;;;3.03;1.70;;;;;;;16.06;66.98;100622.09;5072039;28;20024;-42
2021/09/24 02:14:13;;;;;;;2.28;1.80;;;;;;;16.06;66.88;100621.19;5073663;28;20559;-42
2021/09/24 02:16:40;;;;;;;2.28;1.50;;;;;;;16.05;66.91;100627.44;5072546;28;20052;-41
2021/09/24 02:19:06;;;;;;;1.60;1.50;;;;;;;16.05;66.90;100632.78;5068244;28;20077;-41
2021/09/24 02:21:32;;;;;;;3.78;1.52;;;;;;;16.04;66.82;100631.88;5070687;28;20024;-41
2021/09/24 02:23:58;;;;;;;2.78;1.73;;;;;;;16.05;66.93;100638.09;5069813;28;21465;-40
2021/09/24 02:26:24;;;;;;;2.78;1.67;;;;;;;16.04;66.92;100629.22;5073418;28;20374;-41
2021/09/24 02:28:50;;;;;;;2.97;1.25;;;;;;;16.05;66.81;100638.09;5071531;28;20515;-41
2021/09/24 02:31:16;;;;;;;4.78;1.85;;;;;;;16.05;67.00;100638.09;5070514;28;20021;-40
2021/09/24 02:33:44;;;;;;;3.05;1.60;;;;;;;16.03;66.94;100641.69;5066906;28;20030;-42
2021/09/24 02:36:10;;;;;;;3.50;1.58;;;;;;;16.03;66.80;100636.38;5073252;28;20478;-41
2021/09/24 02:38:36;;;;;;;3.72;1.73;;;;;;;16.03;66.78;100625.72;5072673;28;20024;-39
2021/09/24 02:41:03;;;;;;;1.55;1.23;;;;;;;16.03;66.82;100625.72;5065912;28;20021;-40
2021/09/24 02:43:30;;;;;;;1.50;1.40;;;;;;;16.01;66.79;100622.22;5071707;28;20512;-41
2021/09/24 02:45:55;;;;;;;4.38;2.00;;;;;;;16.02;66.76;100626.66;5071713;28;20040;-41
2021/09/24 02:48:21;;;;;;;2.85;2.17;;;;;;;16.01;66.79;100622.22;5071669;28;20059;-40
2021/09/24 02:50:47;;;;;;;2.03;1.85;;;;;;;16.02;66.85;100629.31;5057637;28;20035;-41
2021/09/24 02:53:13;;;;;;;2.08;1.50;;;;;;;16.03;66.52;100640.81;5066994;28;20051;-40
2021/09/24 02:55:39;;;;;;;1.55;1.40;;;;;;;16.02;66.67;100639.94;5054201;28;20504;-41
2021/09/24 02:58:05;;;;;;;4.00;1.33;;;;;;;16.01;66.46;100646.16;5072942;28;20051;-40
2021/09/24 03:00:31;;;;;;;2.25;1.80;;;;;;;16.01;66.50;100640.00;5071052;28;20028;-41
2021/09/24 03:02:57;;;;;;;2.92;1.52;;;;;;;16.00;66.57;100647.09;5071590;28;20051;-40
2021/09/24 03:05:23;;;;;;;1.40;1.30;;;;;;;16.01;66.43;100647.97;5058144;28;20043;-41
2021/09/24 03:07:50;;;;;;;5.88;1.80;;;;;;;16.01;66.27;100647.97;5067057;28;22137;-40
2021/09/24 03:10:16;;;;;;;2.72;1.63;;;;;;;16.00;66.37;100657.72;5076564;28;20035;-40
2021/09/24 03:12:42;;;;;;;3.45;1.70;;;;;;;16.00;66.29;100657.72;5074359;28;20023;-40
2021/09/24 03:15:10;;;;;;;4.30;2.70;;;;;;;15.99;66.18;100661.31;5069809;28;20028;-40
2021/09/24 03:17:36;;;;;;;4.03;1.42;;;;;;;16.00;66.23;100662.16;5069553;28;20112;-40
2021/09/24 03:20:04;;;;;;;1.45;1.35;;;;;;;15.99;66.41;100677.28;5065488;28;20108;-41
2021/09/24 03:22:30;;;;;;;5.15;2.05;;;;;;;15.98;66.20;100670.22;5069843;28;20082;-41
2021/09/24 03:24:56;;;;;;;3.72;1.75;;;;;;;15.99;66.17;100671.09;5056124;28;20047;-41
2021/09/24 03:27:22;;;;;;;5.05;2.30;;;;;;;15.98;66.20;100680.88;5074916;28;20054;-40
2021/09/24 03:29:47;;;;;;;3.85;1.60;;;;;;;15.98;66.25;100669.34;5071541;28;20389;-41
2021/09/24 03:32:18;;;;;;;3.08;1.90;;;;;;;15.98;66.25;100670.22;5070544;28;20020;-40
2021/09/24 03:34:47;;;;;;;2.22;1.40;;;;;;;15.98;66.35;100677.31;5067322;28;20021;-40
2021/09/24 03:37:13;;;;;;;1.98;1.77;;;;;;;15.97;66.34;100679.09;5067292;28;20493;-40
2021/09/24 03:39:40;;;;;;;3.13;1.85;;;;;;;15.97;66.35;100672.94;5069272;28;20436;-40
2021/09/24 03:42:06;;;;;;;3.50;1.73;;;;;;;15.97;66.46;100678.25;5070165;28;20028;-40
2021/09/24 03:44:33;;;;;;;1.63;1.23;;;;;;;15.96;66.41;100677.38;5070073;28;20052;-40
2021/09/24 03:46:58;;;;;;;2.67;1.95;;;;;;;15.96;66.34;100679.16;5065584;28;20028;-40
2021/09/24 03:49:24;;;;;;;2.78;1.80;;;;;;;15.97;66.46;100679.09;5064049;28;20047;-40
2021/09/24 03:51:51;;;;;;;3.40;2.00;;;;;;;15.97;66.64;100683.56;5069305;28;20024;-41
2021/09/24 03:54:17;;;;;;;2.25;1.77;;;;;;;15.96;66.59;100685.34;5069543;28;20107;-40
2021/09/24 03:56:43;;;;;;;3.15;1.67;;;;;;;15.96;66.55;100688.00;5070180;28;20024;-40
2021/09/24 03:59:10;;;;;;;2.10;1.48;;;;;;;15.95;66.60;100691.59;5074697;28;20052;-41
2021/09/24 04:01:37;;;;;;;1.77;1.63;;;;;;;15.95;66.59;100694.25;5067939;28;20478;-41
2021/09/24 04:04:03;;;;;;;2.95;1.42;;;;;;;15.96;66.50;100700.44;5075383;28;20110;-42
2021/09/24 04:06:29;;;;;;;3.67;2.08;;;;;;;15.95;66.60;100696.91;5072233;28;20052;-42
2021/09/24 04:08:55;;;;;;;3.35;1.73;;;;;;;15.96;66.57;100706.63;5071525;28;20549;-41
2021/09/24 04:11:21;;;;;;;2.75;1.30;;;;;;;15.95;66.67;100707.56;5067589;28;20032;-41
2021/09/24 04:13:47;;;;;;;4.78;1.55;;;;;;;15.94;66.64;100705.75;5065905;28;20029;-42
2021/09/24 04:16:13;;;;;;;5.20;1.98;;;;;;;15.96;66.59;100716.38;5069633;28;20033;-41
2021/09/24 04:18:39;;;;;;;2.45;1.98;;;;;;;15.94;66.69;100721.72;5070534;28;20059;-42
2021/09/24 04:21:05;;;;;;;4.63;2.08;;;;;;;15.94;66.69;100721.72;5055096;28;20432;-41
2021/09/24 04:23:31;;;;;;;3.28;1.85;;;;;;;15.94;66.76;100719.06;5066906;28;20123;-42
2021/09/24 04:25:57;;;;;;;1.92;1.30;;;;;;;15.94;66.71;100727.03;5068679;28;20451;-41
2021/09/24 04:28:23;;;;;;;2.60;1.60;;;;;;;15.94;66.82;100710.22;5069388;28;20513;-41
2021/09/24 04:30:49;;;;;;;4.30;1.90;;;;;;;15.93;66.58;100716.47;5038334;28;20031;-42
2021/09/24 04:33:15;;;;;;;2.53;1.50;;;;;;;15.94;66.59;100715.56;5066877;28;20027;-40
2021/09/24 04:35:41;;;;;;;3.40;1.80;;;;;;;15.90;66.58;100704.13;5067610;28;20020;-41
2021/09/24 04:38:07;;;;;;;2.22;1.73;;;;;;;15.92;66.68;100704.97;5052498;28;20035;-41
2021/09/24 04:40:33;;;;;;;2.22;1.35;;;;;;;15.91;66.60;100711.19;5069133;28;20025;-41
2021/09/24 04:42:59;;;;;;;4.30;2.05;;;;;;;15.91;66.66;100713.88;5061247;28;20032;-41
2021/09/24 04:45:25;;;;;;;2.33;1.30;;;;;;;15.91;66.57;100720.03;5066365;28;20037;-41
2021/09/24 04:47:50;;;;;;;2.70;1.55;;;;;;;15.90;66.75;100720.06;5073340;28;20032;-41
2021/09/24 04:50:16;;;;;;;2.55;1.92;;;;;;;15.91;66.55;100719.19;5070380;28;20032;-41
2021/09/24 04:52:42;;;;;;;3.17;1.52;;;;;;;15.89;66.63;100711.25;5073750;28;20513;-41
2021/09/24 04:55:09;;;;;;;3.38;1.75;;;;;;;15.90;66.61;100717.41;5065353;28;20035;-41
2021/09/24 04:57:36;;;;;;;3.38;1.67;;;;;;;15.89;66.69;100710.38;5075443;28;20111;-42
2021/09/24 05:00:04;;;;;;;2.13;1.92;;;;;;;15.89;66.65;100719.22;5067750;28;20032;-41
2021/09/24 05:02:30;;;;;;;2.60;1.80;;;;;;;15.88;66.67;100716.59;5057843;28;20405;-42
2021/09/24 05:04:55;;;;;;;2.75;1.48;;;;;;;15.89;66.74;100713.03;5075593;28;20024;-42
2021/09/24 05:07:21;;;;;;;1.98;1.70;;;;;;;15.87;66.72;100715.72;5076011;28;20065;-41
2021/09/24 05:09:47;;;;;;;2.05;1.85;;;;;;;15.88;66.69;100722.78;5072599;28;20108;-41
2021/09/24 05:12:13;;;;;;;2.03;1.80;;;;;;;15.87;66.55;100720.19;5073526;28;20020;-41
2021/09/24 05:14:39;;;;;;;1.75;1.40;;;;;;;15.87;66.71;100717.53;5073577;28;20092;-41
2021/09/24 05:17:05;;;;;;;2.80;1.77;;;;;;;15.87;66.67;100722.84;5076638;28;20056;-41
2021/09/24 05:19:30;;;;;;;2.78;1.60;;;;;;;15.86;66.67;100723.75;5070957;28;20107;-41
2021/09/24 05:21:56;;;;;;;2.33;1.55;;;;;;;15.86;66.72;100729.06;5073706;28;20048;-41
2021/09/24 05:24:22;;;;;;;2.70;1.95;;;;;;;15.86;66.70;100726.41;5074640;28;20024;-41
2021/09/24 05:26:48;;;;;;;2.47;1.58;;;;;;;15.86;66.71;100729.06;5080180;28;20024;-41
2021/09/24 05:29:14;;;;;;;3.13;1.60;;;;;;;15.86;66.80;100729.06;5075375;28;20428;-41
2021/09/24 05:31:40;;;;;;;2.35;1.60;;;;;;;15.85;66.78;100724.69;5074382;28;20036;-42
2021/09/24 05:34:06;;;;;;;3.40;1.60;;;;;;;15.85;67.12;100725.56;5077085;28;20137;-41
2021/09/24 05:36:32;;;;;;;3.72;2.35;;;;;;;15.84;66.84;100717.63;5071512;28;20111;-41
2021/09/24 05:38:58;;;;;;;1.85;1.67;;;;;;;15.85;66.93;100727.34;5075415;28;20099;-42
2021/09/24 05:41:24;;;;;;;2.65;1.33;;;;;;;15.85;66.74;100727.34;5072408;28;20035;-41
2021/09/24 05:43:50;;;;;;;3.58;1.60;;;;;;;15.85;66.86;100727.34;5053895;28;20436;-42
2021/09/24 05:46:17;;;;;;;2.38;1.35;;;;;;;15.84;66.93;100725.59;5069095;28;20051;-42
2021/09/24 05:48:43;;;;;;;2.67;1.90;;;;;;;15.83;66.85;100722.06;5068891;28;20078;-41
2021/09/24 05:51:09;;;;;;;2.42;1.40;;;;;;;15.84;66.80;100725.59;5065805;28;20025;-41
2021/09/24 05:53:35;;;;;;;2.05;1.27;;;;;;;15.84;66.90;100730.91;5076678;28;20070;-41
2021/09/24 05:56:02;;;;;;;2.55;1.27;;;;;;;15.83;66.90;100723.84;5060003;28;20096;-41
2021/09/24 05:58:27;;;;;;;4.00;1.60;;;;;;;15.84;66.85;100720.28;5072278;28;20035;-41
2021/09/24 06:00:53;;;;;;;1.65;1.35;;;;;;;15.83;66.97;100730.03;5074072;28;20028;-41
2021/09/24 06:03:19;;;;;;;1.88;1.27;;;;;;;15.83;66.86;100718.50;5073083;28;20052;-41
2021/09/24 06:05:45;;;;;;;1.58;1.48;;;;;;;15.83;67.09;100729.16;5056601;28;20036;-42
2021/09/24 06:08:11;;;;;;;2.08;1.40;;;;;;;15.83;66.94;100729.16;5071760;28;20028;-41
2021/09/24 06:10:39;;;;;;;3.05;1.48;;;;;;;15.82;66.95;100728.31;5071168;28;20028;-41
2021/09/24 06:13:08;;;;;;;1.90;1.52;;;;;;;15.83;66.96;100737.13;5073486;28;20100;-39
2021/09/24 06:15:35;;;;;;;2.85;1.58;;;;;;;15.81;66.89;100734.56;5070896;28;20115;-41
2021/09/24 06:18:01;;;;;;;3.90;1.70;;;;;;;15.82;66.89;100740.72;5078245;28;20048;-41
2021/09/24 06:20:27;;;;;;;1.75;1.65;;;;;;;15.83;66.96;100737.13;5075460;28;20036;-41
2021/09/24 06:22:53;;;;;;;2.67;1.45;;;;;;;15.82;67.07;100740.72;5071164;28;20109;-41
2021/09/24 06:25:20;;;;;;;2.50;1.65;;;;;;;15.82;66.71;100743.38;5056350;28;20028;-42
2021/09/24 06:27:45;;;;;;;1.63;1.52;;;;;;;15.81;67.07;100746.97;5059734;28;20023;-42
2021/09/24 06:30:15;;;;;;;1.52;1.42;;;;;;;15.81;67.05;100749.63;5073562;28;20039;-41
2021/09/24 06:32:41;;;;;;;1.70;1.45;;;;;;;15.81;67.16;100744.31;5069209;28;20029;-41
2021/09/24 06:35:07;;;;;;;1.60;1.50;;;;;;;15.80;67.09;100746.09;5072725;28;20028;-41
2021/09/24 06:37:33;;;;;;;3.65;2.10;;;;;;;15.80;67.06;100746.09;5068627;28;20074;-41
2021/09/24 06:39:59;;;;;;;1.50;1.40;;;;;;;15.80;67.04;100747.88;5069434;28;20024;-41
2021/09/24 06:42:25;;;;;;;1.63;1.52;;;;;;;15.78;66.99;100748.78;5076634;28;20118;-42
2021/09/24 06:44:51;;;;;;;1.50;1.40;;;;;;;15.80;67.23;100747.88;5054642;28;20035;-42
2021/09/24 06:47:18;;;;;;;2.35;1.70;;;;;;;15.78;67.25;100742.63;5069238;28;21260;-42
2021/09/24 06:49:44;;;;;;;2.00;1.30;;;;;;;15.80;67.20;100745.22;5073025;28;20036;-41
2021/09/24 06:52:11;;;;;;;3.05;2.15;;;;;;;15.77;67.20;100736.41;5069197;28;20055;-39
2021/09/24 06:54:36;;;;;;;3.40;2.00;;;;;;;15.77;67.07;100733.75;5067197;28;20028;-39
2021/09/24 06:57:03;;;;;;;2.33;1.80;;;;;;;15.78;67.19;100738.16;5070030;28;20549;-39
2021/09/24 06:59:29;;;;;;;1.70;1.60;;;;;;;15.78;67.30;100722.19;5071206;28;20036;-39
2021/09/24 07:01:55;;;;;;;1.75;1.45;;;;;;;15.77;67.28;100727.56;5071685;28;20077;-39
2021/09/24 07:04:21;;;;;;;2.05;1.92;;;;;;;15.77;67.29;100736.41;5071015;28;20473;-40
2021/09/24 07:06:48;;;;;;;2.15;1.50;;;;;;;15.76;67.17;100741.78;5048146;28;20458;-42
2021/09/24 07:09:14;;;;;;;2.85;1.70;;;;;;;15.77;67.24;100740.84;5068916;28;20020;-41
2021/09/24 07:11:42;;;;;;;2.75;1.90;;;;;;;15.76;67.31;100740.00;5064443;28;20052;-39
2021/09/24 07:14:10;;;;;;;2.10;1.65;;;;;;;15.76;67.21;100740.00;5071221;28;20537;-41
2021/09/24 07:16:37;;;;;;;2.17;1.75;;;;;;;15.77;67.21;100748.81;5063323;28;20028;-39
2021/09/24 07:19:03;;;;;;;2.55;2.00;;;;;;;15.76;67.26;100742.66;5069830;28;20024;-41
2021/09/24 07:21:29;;;;;;;2.08;1.65;;;;;;;15.76;67.42;100742.66;5072926;28;20025;-41
2021/09/24 07:23:55;;;;;;;3.20;1.83;;;;;;;15.75;67.37;100740.94;5071489;28;20035;-40
2021/09/24 07:26:21;;;;;;;1.95;1.77;;;;;;;15.76;67.44;100742.66;5073683;28;20096;-39
2021/09/24 07:28:47;;;;;;;2.55;1.45;;;;;;;15.76;67.50;100750.63;5075505;28;20857;-39
2021/09/24 07:31:13;;;;;;;2.10;2.00;;;;;;;15.75;67.50;100746.25;5070985;28;20073;-39
2021/09/24 07:33:39;;;;;;;2.63;1.75;;;;;;;15.76;67.35;100752.41;5073077;28;20016;-40
2021/09/24 07:36:05;;;;;;;2.55;1.98;;;;;;;15.76;67.37;100755.06;5053259;28;20023;-43
2021/09/24 07:38:30;;;;;;;5.40;1.90;;;;;;;15.75;67.50;100759.53;5075213;28;20024;-39
2021/09/24 07:40:56;;;;;;;2.13;1.77;;;;;;;15.74;67.42;100757.78;5074526;28;20028;-39
2021/09/24 07:43:22;;;;;;;2.10;1.90;;;;;;;15.76;67.55;100771.03;5072511;28;20402;-39
2021/09/24 07:45:48;;;;;;;1.55;1.45;;;;;;;15.74;67.46;100764.91;5068881;28;20016;-41
2021/09/24 07:48:14;;;;;;;3.28;2.15;;;;;;;15.75;67.55;100762.19;5066803;28;20158;-39
2021/09/24 07:50:40;;;;;;;2.70;2.15;;;;;;;15.75;67.52;100775.50;5067271;28;20025;-40
2021/09/24 07:53:06;;;;;;;2.42;1.70;;;;;;;15.75;67.65;100777.25;5065160;28;20025;-39
2021/09/24 07:55:32;;;;;;;2.38;1.98;;;;;;;15.75;67.62;100777.25;5060933;28;20039;-39
2021/09/24 07:57:58;;;;;;;2.50;2.10;;;;;;;15.75;67.68;100778.16;5068720;28;20123;-41
2021/09/24 08:00:25;;;;;;;1.70;1.60;;;;;;;15.75;67.53;100777.25;5071149;28;20028;-39
2021/09/24 08:02:52;;;;;;;2.13;1.70;;;;;;;15.74;67.55;100776.38;5068614;28;20056;-39
2021/09/24 08:05:18;;;;;;;2.92;1.70;;;;;;;15.74;67.51;100779.03;5068995;28;20043;-39
2021/09/24 08:07:44;;;;;;;2.47;1.67;;;;;;;15.75;67.45;100775.50;5068481;28;20385;-39
2021/09/24 08:10:11;;;;;;;1.80;1.70;;;;;;;15.74;67.60;100781.69;5070308;28;20173;-39
2021/09/24 08:12:37;;;;;;;2.83;1.88;;;;;;;15.74;67.57;100779.03;5071887;28;20490;-39
2021/09/24 08:15:03;;;;;;;2.20;2.00;;;;;;;15.74;67.56;100776.38;5068215;28;20020;-40
2021/09/24 08:17:29;;;;;;;2.55;2.35;;;;;;;15.74;67.55;100773.72;5070853;28;20044;-40
2021/09/24 08:19:55;;;;;;;2.40;2.20;;;;;;;15.74;67.56;100784.34;5073218;28;20036;-39
2021/09/24 08:22:21;;;;;;;1.50;1.40;;;;;;;15.75;67.56;100779.94;5063034;28;20029;-39
2021/09/24 08:24:47;;;;;;;1.90;1.80;;;;;;;15.74;67.49;100781.69;5072887;28;20021;-41
2021/09/24 08:27:13;;;;;;;2.38;2.17;;;;;;;15.74;67.46;100787.00;5072029;28;20111;-40
2021/09/24 08:29:39;;;;;;;2.25;1.80;;;;;;;15.73;67.37;100774.66;5073871;28;20067;-40
2021/09/24 08:32:05;;;;;;;1.80;1.70;;;;;;;15.75;67.45;100785.25;5076614;28;20044;-40
2021/09/24 08:34:31;;;;;;;1.83;1.50;;;;;;;15.74;67.37;100783.50;5079141;28;20036;-41
2021/09/24 08:36:57;;;;;;;2.05;1.88;;;;;;;15.73;67.34;100774.66;5077744;28;20027;-41
2021/09/24 08:39:23;;;;;;;2.15;1.73;;;;;;;15.74;67.27;100780.84;5066536;28;20028;-41
2021/09/24 08:41:49;;;;;;;2.50;1.88;;;;;;;15.73;67.25;100774.66;5073605;28;20386;-42
2021/09/24 08:44:15;;;;;;;2.22;2.03;;;;;;;15.73;67.17;100781.75;5072251;28;20017;-42
2021/09/24 08:46:41;;;;;;;1.65;1.55;;;;;;;15.73;67.09;100779.09;5075916;28;20474;-41
2021/09/24 08:49:07;;;;;;;1.90;1.50;;;;;;;15.74;67.13;100786.16;5078361;28;20068;-41
2021/09/24 08:51:34;;;;;;;2.35;1.88;;;;;;;15.73;67.03;100776.41;5074398;28;20051;-41
2021/09/24 08:54:02;;;;;;;1.50;1.40;;;;;;;15.72;67.09;100783.56;5078551;28;20559;-41
2021/09/24 08:56:28;;;;;;;2.58;1.90;;;;;;;15.70;67.14;100776.53;5071806;28;20111;-41
2021/09/24 08:58:54;;;;;;;1.85;1.75;;;;;;;15.74;67.04;100788.81;5059200;28;20021;-39
2021/09/24 09:01:20;;;;;;;1.70;1.60;;;;;;;15.73;67.19;100787.06;5071055;28;20036;-39
2021/09/24 09:03:47;;;;;;;1.73;1.60;;;;;;;15.72;66.88;100783.56;5061470;28;20467;-38
2021/09/24 09:06:15;;;;;;;2.65;1.60;;;;;;;15.73;67.10;100787.06;5074403;28;20513;-41
2021/09/24 09:08:41;;;;;;;1.38;1.25;;;;;;;15.72;67.02;100786.22;5075111;28;20857;-39
2021/09/24 09:11:18;;;;;;;1.77;1.60;;;;;;;15.72;66.92;100783.56;5075724;28;20115;-39
2021/09/24 09:13:55;;;;;;;1.95;1.50;;;;;;;15.72;67.04;100786.22;5072516;28;20024;-40
2021/09/24 09:16:28;;;;;;;2.20;1.75;;;;;;;15.71;67.08;100781.78;5073056;28;20110;-39
2021/09/24 09:19:09;;;;;;;2.55;1.67;;;;;;;15.72;67.04;100783.56;5070228;28;20055;-39
2021/09/24 09:21:38;;;;;;;2.05;1.55;;;;;;;15.73;66.98;100781.75;5073067;28;20111;-41
2021/09/24 09:24:36;;;;;;;1.60;1.50;;;;;;;15.73;67.08;100781.75;5076091;28;20382;-39
2021/09/24 09:27:18;;;;;;;1.90;1.80;;;;;;;15.73;67.16;100785.28;5042880;28;20040;-38
2021/09/24 09:30:19;;;;;;;1.95;1.77;;;;;;;15.73;67.17;100790.59;5074176;28;20104;-40
2021/09/24 09:33:04;;;;;;;1.77;1.40;;;;;;;15.73;67.16;100789.72;5033308;28;20025;-39
2021/09/24 09:35:38;;;;;;;2.63;1.95;;;;;;;15.73;67.09;100779.97;5067149;28;20040;-41
2021/09/24 09:38:04;;;;;;;1.80;1.70;;;;;;;15.73;67.11;100782.63;5069729;28;20028;-39
2021/09/24 09:40:30;;;;;;;2.92;1.38;;;;;;;15.71;67.38;100780.94;5069948;28;20611;-39
2021/09/24 09:42:57;;;;;;;1.95;1.85;;;;;;;15.73;67.31;100781.75;5072436;28;20032;-40
2021/09/24 09:45:24;;;;;;;2.42;1.50;;;;;;;15.72;67.28;100786.22;5072942;28;20028;-38
2021/09/24 09:47:51;;;;;;;1.80;1.67;;;;;;;15.72;67.15;100786.22;5073748;28;20029;-39
2021/09/24 09:50:24;;;;;;;1.88;1.75;;;;;;;15.72;67.19;100780.88;5069752;28;20491;-40
2021/09/24 09:52:58;;;;;;;2.50;1.70;;;;;;;15.73;67.24;100787.06;5072383;28;20020;-38
2021/09/24 09:55:26;;;;;;;2.97;1.50;;;;;;;15.73;67.29;100787.06;5073725;28;20024;-38
2021/09/24 09:58:02;;;;;;;2.58;1.83;;;;;;;15.73;67.21;100784.41;5068600;28;20021;-39
2021/09/24 10:00:31;;;;;;;1.52;1.42;;;;;;;15.73;67.20;100781.75;5074507;28;20549;-40
2021/09/24 10:03:09;;;;;;;2.30;1.90;;;;;;;15.74;67.33;100786.16;5070864;28;20444;-39
2021/09/24 10:05:42;;;;;;;1.80;1.50;;;;;;;15.75;67.38;100785.25;5072592;28;20016;-39
2021/09/24 10:08:32;;;;;;;4.00;1.80;;;;;;;15.75;67.37;100787.91;5074883;28;20504;-39
2021/09/24 10:11:03;;;;;;;2.28;1.50;;;;;;;15.74;67.35;100779.03;5058438;28;20059;-40
2021/09/24 10:13:35;;;;;;;1.85;1.60;;;;;;;15.74;67.44;100778.19;5076826;28;20040;-39
2021/09/24 10:16:02;;;;;;;1.85;1.55;;;;;;;15.73;67.40;100772.00;5062077;28;20086;-39
2021/09/24 10:18:31;;;;;;;1.95;1.42;;;;;;;15.73;67.28;100779.97;5070740;28;20043;-39
2021/09/24 10:20:59;;;;;;;1.83;1.70;;;;;;;15.73;67.34;100779.97;5065299;28;20107;-40
2021/09/24 10:23:26;;;;;;;2.75;1.70;;;;;;;15.74;67.46;100784.34;5073611;28;20028;-40
2021/09/24 10:25:58;;;;;;;1.70;1.60;;;;;;;15.75;67.53;100783.47;5073237;28;20620;-39
2021/09/24 10:28:29;;;;;;;2.40;1.73;;;;;;;15.74;67.49;100789.69;5055951;28;20481;-40
2021/09/24 10:30:55;;;;;;;1.58;1.48;;;;;;;15.74;67.57;100778.19;5040381;28;20375;-40
2021/09/24 10:33:43;;;;;;;2.13;1.92;;;;;;;15.76;67.51;100794.94;5058771;28;20047;-39
2021/09/24 10:36:09;;;;;;;2.13;1.88;;;;;;;15.76;67.52;100781.66;5070980;28;20032;-40
2021/09/24 10:38:43;;;;;;;2.08;1.55;;;;;;;15.76;67.52;100786.97;5049868;28;20059;-42
2021/09/24 10:41:13;;;;;;;1.80;1.70;;;;;;;15.76;67.70;100789.63;5071721;28;20020;-40
2021/09/24 10:43:47;;;;;;;3.20;1.80;;;;;;;15.77;67.55;100794.03;5075248;28;20117;-40
2021/09/24 10:46:25;;;;;;;1.70;1.60;;;;;;;15.76;67.58;100790.53;5075780;28;20056;-41
2021/09/24 10:49:23;;;;;;;1.77;1.67;;;;;;;15.76;67.43;100787.84;5073000;28;20055;-38
2021/09/24 10:51:59;;;;;;;1.77;1.67;;;;;;;15.77;67.40;100799.34;5071855;28;20028;-39
2021/09/24 10:54:28;;;;;;;1.50;1.30;;;;;;;15.76;67.61;100790.53;5069683;28;20044;-41
2021/09/24 10:57:05;;;;;;;2.25;1.83;;;;;;;15.76;67.62;100781.66;5072364;28;20070;-39
2021/09/24 10:59:33;;;;;;;1.80;1.67;;;;;;;15.77;67.63;100786.94;5052975;28;20035;-43
2021/09/24 11:02:00;;;;;;;2.50;1.80;;;;;;;15.80;67.70;100785.97;5055247;28;20029;-42
2021/09/24 11:04:43;;;;;;;6.90;1.85;;;;;;;15.81;67.71;100781.53;5067130;28;20028;-42
2021/09/24 11:07:09;;;;;;;3.40;1.80;;;;;;;15.82;67.67;100785.94;5068460;28;20047;-42
2021/09/24 11:09:50;;;;;;;3.20;1.60;;;;;;;15.81;67.62;100785.06;5058744;28;20028;-42
2021/09/24 11:12:16;;;;;;;2.33;1.73;;;;;;;15.81;67.67;100795.72;5070960;28;20555;-42
2021/09/24 11:14:43;;;;;;;1.75;1.65;;;;;;;15.82;67.63;100791.25;5068342;28;20031;-42
2021/09/24 11:17:10;;;;;;;2.58;1.80;;;;;;;15.82;67.71;100791.25;5067978;28;21759;-42
2021/09/24 11:19:45;;;;;;;5.28;2.03;;;;;;;15.82;67.61;100785.94;5066787;28;20052;-42
2021/09/24 11:22:14;;;;;;;1.73;1.60;;;;;;;15.84;67.59;100790.28;5068511;28;20028;-47
2021/09/24 11:25:00;;;;;;;2.38;1.77;;;;;;;15.88;67.40;100791.06;5073167;28;20024;-42